Time;durP1;ratioP1;P1;durP2;ratioP2;P2;SDS_P1;SDS_P2;PMS_P1;PMS_P2;Temp;Humidity;BMP_temperature;BMP_pressure;BME280_temperature;BME280_humidity;BME280_pressure;Samples;Min_cycle;Max_cycle;Signal;HPM_P1;HPM_P2
2022/07/24 00:01:43;;;;;;;11.18;4.15;;;;;;;;;;5052937;28;20455;-67
2022/07/24 00:04:09;;;;;;;9.90;4.30;;;;;;;;;;5047030;28;20147;-67
2022/07/24 00:06:35;;;;;;;10.18;4.18;;;;;;;;;;5030826;28;20495;-67
2022/07/24 00:09:01;;;;;;;12.27;4.10;;;;;;;;;;5048407;28;20392;-67
2022/07/24 00:11:27;;;;;;;12.23;4.03;;;;;;;;;;5050924;28;20039;-67
2022/07/24 00:13:54;;;;;;;10.80;4.65;;;;;;;;;;5044569;28;20119;-67
2022/07/24 00:16:20;;;;;;;10.52;4.32;;;;;;;;;;5049177;28;20044;-67
2022/07/24 00:18:46;;;;;;;16.73;4.65;;;;;;;;;;5033770;28;20188;-68
2022/07/24 00:21:12;;;;;;;10.82;4.25;;;;;;;;;;5043164;28;20500;-67
2022/07/24 00:23:38;;;;;;;12.10;4.47;;;;;;;;;;5031139;28;20036;-68
2022/07/24 00:26:04;;;;;;;9.15;3.88;;;;;;;;;;5045951;28;20032;-67
2022/07/24 00:28:30;;;;;;;15.02;5.13;;;;;;;;;;5051846;28;20032;-67
2022/07/24 00:30:57;;;;;;;11.95;4.68;;;;;;;;;;5043469;28;20040;-68
2022/07/24 00:33:23;;;;;;;15.35;4.60;;;;;;;;;;5034465;28;20039;-67
2022/07/24 00:35:49;;;;;;;14.40;4.30;;;;;;;;;;5043637;28;20074;-68
2022/07/24 00:38:15;;;;;;;10.40;4.32;;;;;;;;;;5030828;28;20514;-68
2022/07/24 00:40:41;;;;;;;8.65;3.88;;;;;;;;;;5026310;28;20428;-68
2022/07/24 00:43:07;;;;;;;8.55;3.78;;;;;;;;;;5034818;28;20121;-68
2022/07/24 00:45:34;;;;;;;12.70;3.85;;;;;;;;;;5069056;28;20059;-68
2022/07/24 00:48:00;;;;;;;12.23;4.00;;;;;;;;;;5041891;28;20036;-68
2022/07/24 00:50:26;;;;;;;11.43;3.85;;;;;;;;;;5065436;28;20063;-68
2022/07/24 00:52:52;;;;;;;8.70;3.42;;;;;;;;;;5045551;28;20471;-67
2022/07/24 00:55:19;;;;;;;9.18;3.53;;;;;;;;;;5043539;28;20036;-67
2022/07/24 00:57:48;;;;;;;9.13;3.30;;;;;;;;;;5046595;28;20640;-67
2022/07/24 01:00:15;;;;;;;10.05;3.50;;;;;;;;;;5065154;28;20062;-68
2022/07/24 01:02:42;;;;;;;9.98;3.80;;;;;;;;;;5065752;28;20028;-67
2022/07/24 01:05:09;;;;;;;9.13;3.50;;;;;;;;;;5062161;28;20027;-68
2022/07/24 01:07:36;;;;;;;9.75;3.60;;;;;;;;;;5065413;28;20721;-68
2022/07/24 01:10:03;;;;;;;10.77;3.25;;;;;;;;;;5065700;28;20643;-67
2022/07/24 01:12:30;;;;;;;8.40;3.40;;;;;;;;;;5063224;28;20115;-68
2022/07/24 01:14:56;;;;;;;10.85;3.40;;;;;;;;;;5060409;28;20032;-68
2022/07/24 01:17:22;;;;;;;6.90;3.05;;;;;;;;;;5031542;28;20028;-68
2022/07/24 01:19:50;;;;;;;8.48;3.50;;;;;;;;;;5013724;28;20222;-68
2022/07/24 01:22:16;;;;;;;8.60;3.20;;;;;;;;;;5001431;28;20509;-68
2022/07/24 01:24:42;;;;;;;9.50;3.30;;;;;;;;;;5018991;28;20447;-68
2022/07/24 01:27:08;;;;;;;9.88;3.65;;;;;;;;;;5014625;28;21651;-68
2022/07/24 01:29:34;;;;;;;10.52;3.50;;;;;;;;;;5004119;28;20040;-68
2022/07/24 01:32:00;;;;;;;8.07;3.22;;;;;;;;;;5010431;28;20036;-68
2022/07/24 01:34:27;;;;;;;12.70;3.28;;;;;;;;;;5020807;28;20046;-68
2022/07/24 01:36:53;;;;;;;7.82;3.10;;;;;;;;;;4994216;28;20071;-69
2022/07/24 01:39:19;;;;;;;8.38;3.03;;;;;;;;;;5026862;28;20024;-68
2022/07/24 01:41:45;;;;;;;8.00;2.92;;;;;;;;;;5050582;28;20135;-68
2022/07/24 01:44:11;;;;;;;7.45;3.08;;;;;;;;;;5046613;28;20454;-68
2022/07/24 01:46:37;;;;;;;6.47;2.63;;;;;;;;;;5047719;28;20089;-67
2022/07/24 01:49:03;;;;;;;7.78;3.10;;;;;;;;;;5046972;28;20502;-67
2022/07/24 01:51:29;;;;;;;7.35;3.08;;;;;;;;;;5045965;28;20106;-66
2022/07/24 01:53:56;;;;;;;6.97;3.00;;;;;;;;;;5046299;28;20528;-66
2022/07/24 01:56:22;;;;;;;8.68;3.28;;;;;;;;;;5048949;28;20186;-66
2022/07/24 01:58:48;;;;;;;8.52;3.40;;;;;;;;;;5052383;28;20063;-67
2022/07/24 02:01:14;;;;;;;9.35;3.53;;;;;;;;;;5032088;28;20428;-67
2022/07/24 02:03:40;;;;;;;11.52;3.85;;;;;;;;;;5053460;28;20109;-66
2022/07/24 02:06:06;;;;;;;8.10;3.33;;;;;;;;;;5048574;28;20526;-66
2022/07/24 02:08:32;;;;;;;7.88;3.47;;;;;;;;;;5049073;28;20478;-66
2022/07/24 02:10:58;;;;;;;7.78;3.35;;;;;;;;;;5046562;28;20031;-67
2022/07/24 02:13:25;;;;;;;7.65;3.05;;;;;;;;;;5049503;28;20620;-67
2022/07/24 02:15:52;;;;;;;7.97;3.60;;;;;;;;;;5044942;28;20020;-67
2022/07/24 02:18:18;;;;;;;8.68;3.65;;;;;;;;;;5051126;28;20032;-67
2022/07/24 02:20:45;;;;;;;8.80;3.95;;;;;;;;;;5051244;28;20028;-67
2022/07/24 02:23:11;;;;;;;9.98;4.78;;;;;;;;;;5046764;28;20989;-66
2022/07/24 02:25:37;;;;;;;8.57;3.78;;;;;;;;;;5050396;28;20122;-67
2022/07/24 02:28:03;;;;;;;9.98;3.72;;;;;;;;;;5048884;28;20028;-67
2022/07/24 02:30:29;;;;;;;8.43;3.35;;;;;;;;;;5032883;28;20035;-67
2022/07/24 02:32:55;;;;;;;10.18;3.38;;;;;;;;;;5049981;28;20036;-67
2022/07/24 02:35:21;;;;;;;6.50;2.90;;;;;;;;;;5049601;28;20318;-67
2022/07/24 02:37:48;;;;;;;7.75;3.05;;;;;;;;;;5034813;28;20489;-66
2022/07/24 02:40:14;;;;;;;7.88;3.30;;;;;;;;;;5032875;28;20507;-67
2022/07/24 02:42:41;;;;;;;11.95;3.28;;;;;;;;;;5027851;28;20028;-67
2022/07/24 02:45:07;;;;;;;8.05;2.95;;;;;;;;;;5059691;28;20136;-67
2022/07/24 02:47:34;;;;;;;7.75;2.95;;;;;;;;;;5065442;28;20040;-67
2022/07/24 02:50:00;;;;;;;7.55;2.97;;;;;;;;;;5062074;28;20052;-67
2022/07/24 02:52:26;;;;;;;8.23;3.47;;;;;;;;;;5046693;28;20031;-67
2022/07/24 02:54:52;;;;;;;9.98;3.45;;;;;;;;;;5064892;28;20077;-67
2022/07/24 02:57:20;;;;;;;6.95;2.90;;;;;;;;;;5048713;28;20506;-67
2022/07/24 02:59:49;;;;;;;9.82;3.10;;;;;;;;;;5065542;28;21060;-67
2022/07/24 03:02:16;;;;;;;7.40;3.17;;;;;;;;;;5064767;28;20036;-67
2022/07/24 03:04:42;;;;;;;6.55;2.70;;;;;;;;;;5060208;28;20020;-67
2022/07/24 03:07:08;;;;;;;7.75;3.10;;;;;;;;;;5059688;28;21649;-67
2022/07/24 03:09:34;;;;;;;9.25;3.33;;;;;;;;;;5041353;28;20123;-67
2022/07/24 03:12:00;;;;;;;9.20;2.88;;;;;;;;;;5052928;28;20446;-67
2022/07/24 03:14:27;;;;;;;11.55;3.20;;;;;;;;;;5057227;28;20021;-67
2022/07/24 03:16:53;;;;;;;9.23;3.30;;;;;;;;;;5030311;28;20036;-68
2022/07/24 03:19:19;;;;;;;9.52;3.47;;;;;;;;;;5013445;28;20111;-68
2022/07/24 03:21:45;;;;;;;7.95;3.10;;;;;;;;;;5013257;28;20419;-68
2022/07/24 03:24:11;;;;;;;8.07;3.30;;;;;;;;;;5007541;28;20334;-66
2022/07/24 03:26:37;;;;;;;8.88;3.28;;;;;;;;;;5011839;28;20727;-66
2022/07/24 03:29:03;;;;;;;8.45;3.25;;;;;;;;;;5015079;28;20028;-68
2022/07/24 03:31:29;;;;;;;9.35;3.50;;;;;;;;;;4999973;28;20574;-68
2022/07/24 03:33:55;;;;;;;6.80;2.97;;;;;;;;;;5016274;28;20032;-66
2022/07/24 03:36:22;;;;;;;8.00;3.15;;;;;;;;;;5018638;28;20471;-66
2022/07/24 03:38:48;;;;;;;10.10;3.75;;;;;;;;;;5003565;28;20033;-68
2022/07/24 03:41:14;;;;;;;10.60;3.50;;;;;;;;;;5034058;28;20668;-67
2022/07/24 03:43:40;;;;;;;8.02;3.45;;;;;;;;;;5049692;28;20036;-66
2022/07/24 03:46:06;;;;;;;15.13;3.60;;;;;;;;;;5047724;28;20036;-67
2022/07/24 03:48:32;;;;;;;8.82;3.58;;;;;;;;;;5035075;28;20612;-67
2022/07/24 03:50:58;;;;;;;8.95;3.45;;;;;;;;;;5030831;28;20114;-67
2022/07/24 03:53:24;;;;;;;9.73;3.42;;;;;;;;;;5049798;28;20029;-66
2022/07/24 03:55:51;;;;;;;8.13;3.20;;;;;;;;;;5027537;28;20070;-66
2022/07/24 03:58:17;;;;;;;9.25;3.60;;;;;;;;;;5033865;28;20531;-66
2022/07/24 04:00:43;;;;;;;9.90;3.70;;;;;;;;;;5050702;28;20063;-67
2022/07/24 04:03:09;;;;;;;8.10;3.17;;;;;;;;;;5052461;28;20851;-68
2022/07/24 04:05:35;;;;;;;6.78;3.20;;;;;;;;;;5052207;28;20090;-66
2022/07/24 04:08:01;;;;;;;8.90;3.05;;;;;;;;;;5049298;28;20028;-67
2022/07/24 04:10:27;;;;;;;7.30;3.15;;;;;;;;;;5033641;28;20540;-67
2022/07/24 04:12:53;;;;;;;7.18;2.90;;;;;;;;;;5048503;28;20110;-67
2022/07/24 04:15:19;;;;;;;8.93;3.60;;;;;;;;;;5034968;28;20117;-68
2022/07/24 04:17:46;;;;;;;8.50;3.33;;;;;;;;;;5051827;28;20349;-68
2022/07/24 04:20:12;;;;;;;8.98;3.38;;;;;;;;;;5047237;28;20393;-67
2022/07/24 04:22:38;;;;;;;7.05;3.28;;;;;;;;;;5051873;28;20035;-68
2022/07/24 04:25:05;;;;;;;9.00;3.25;;;;;;;;;;5030723;28;20504;-68
2022/07/24 04:27:32;;;;;;;14.07;3.58;;;;;;;;;;5054071;28;20028;-67
2022/07/24 04:29:58;;;;;;;11.35;3.60;;;;;;;;;;5050185;28;20067;-67
2022/07/24 04:32:24;;;;;;;20.65;4.38;;;;;;;;;;5051033;28;20035;-67
2022/07/24 04:34:51;;;;;;;16.90;4.53;;;;;;;;;;5048900;28;20427;-67
2022/07/24 04:37:17;;;;;;;10.98;3.63;;;;;;;;;;5051196;28;20080;-67
2022/07/24 04:39:43;;;;;;;14.38;3.85;;;;;;;;;;5020449;28;20020;-67
2022/07/24 04:42:09;;;;;;;10.52;3.50;;;;;;;;;;5012831;28;20121;-67
2022/07/24 04:44:35;;;;;;;12.15;3.72;;;;;;;;;;5066393;28;20028;-66
2022/07/24 04:47:01;;;;;;;12.40;3.72;;;;;;;;;;5059368;28;20282;-67
2022/07/24 04:49:27;;;;;;;8.93;3.00;;;;;;;;;;5046400;28;20437;-67
2022/07/24 04:51:53;;;;;;;11.57;3.45;;;;;;;;;;5062586;28;20028;-67
2022/07/24 04:54:19;;;;;;;9.00;3.42;;;;;;;;;;5051754;28;20028;-67
2022/07/24 04:56:45;;;;;;;12.85;3.30;;;;;;;;;;5066396;28;20043;-69
2022/07/24 04:59:11;;;;;;;10.25;3.38;;;;;;;;;;5060167;28;20089;-67
2022/07/24 05:01:38;;;;;;;10.05;3.97;;;;;;;;;;5059318;28;20466;-68
2022/07/24 05:04:04;;;;;;;11.43;3.50;;;;;;;;;;5060387;28;20107;-68
2022/07/24 05:06:31;;;;;;;9.48;3.50;;;;;;;;;;5041705;28;20692;-67
2022/07/24 05:08:57;;;;;;;11.05;3.53;;;;;;;;;;5063687;28;20499;-68
2022/07/24 05:11:23;;;;;;;11.18;3.40;;;;;;;;;;5068321;28;20035;-68
2022/07/24 05:13:49;;;;;;;10.23;3.60;;;;;;;;;;5056325;28;20045;-68
2022/07/24 05:16:15;;;;;;;8.52;3.42;;;;;;;;;;5034200;28;20067;-67
2022/07/24 05:18:41;;;;;;;7.57;3.25;;;;;;;;;;5015393;28;20036;-68
2022/07/24 05:21:08;;;;;;;8.43;3.53;;;;;;;;;;4993935;28;20452;-68
2022/07/24 05:23:34;;;;;;;11.27;3.63;;;;;;;;;;5000839;28;20032;-68
2022/07/24 05:26:00;;;;;;;11.73;3.67;;;;;;;;;;5015194;28;20050;-69
2022/07/24 05:28:26;;;;;;;9.07;3.60;;;;;;;;;;5019809;28;20047;-68
2022/07/24 05:30:52;;;;;;;7.90;3.35;;;;;;;;;;5003177;28;20035;-69
2022/07/24 05:33:19;;;;;;;7.40;3.50;;;;;;;;;;5019659;28;20033;-68
2022/07/24 05:35:45;;;;;;;11.65;3.50;;;;;;;;;;5005422;28;20555;-68
2022/07/24 05:38:11;;;;;;;7.43;3.30;;;;;;;;;;5017812;28;20039;-68
2022/07/24 05:40:37;;;;;;;8.82;3.40;;;;;;;;;;5047349;28;20192;-68
2022/07/24 05:43:03;;;;;;;10.30;3.40;;;;;;;;;;5029635;28;20490;-68
2022/07/24 05:45:29;;;;;;;10.35;3.50;;;;;;;;;;5054568;28;20164;-68
2022/07/24 05:47:55;;;;;;;13.65;3.67;;;;;;;;;;5049725;28;20036;-68
2022/07/24 05:50:22;;;;;;;8.65;3.63;;;;;;;;;;5053248;28;20052;-68
2022/07/24 05:52:48;;;;;;;9.38;3.20;;;;;;;;;;5049681;28;20112;-68
2022/07/24 05:55:14;;;;;;;8.45;3.13;;;;;;;;;;5035945;28;20677;-68
2022/07/24 05:57:40;;;;;;;9.13;3.25;;;;;;;;;;5052712;28;20175;-68
2022/07/24 06:00:06;;;;;;;10.63;3.30;;;;;;;;;;5044043;28;20064;-67
2022/07/24 06:02:33;;;;;;;9.60;2.92;;;;;;;;;;5049209;28;20036;-68
2022/07/24 06:04:59;;;;;;;10.02;3.40;;;;;;;;;;5048252;28;20032;-68
2022/07/24 06:07:25;;;;;;;11.05;3.40;;;;;;;;;;5049749;28;20427;-67
2022/07/24 06:09:52;;;;;;;9.43;3.40;;;;;;;;;;5026946;28;20448;-67
2022/07/24 06:12:18;;;;;;;10.88;3.35;;;;;;;;;;5028562;28;20027;-68
2022/07/24 06:14:44;;;;;;;10.00;3.15;;;;;;;;;;5050914;28;20237;-67
2022/07/24 06:17:10;;;;;;;10.98;3.50;;;;;;;;;;5048786;28;21257;-68
2022/07/24 06:19:36;;;;;;;12.02;3.70;;;;;;;;;;5052829;28;20032;-67
2022/07/24 06:22:03;;;;;;;8.30;3.17;;;;;;;;;;5031356;28;20093;-67
2022/07/24 06:24:29;;;;;;;9.85;3.40;;;;;;;;;;5056320;28;20051;-66
2022/07/24 06:26:55;;;;;;;9.63;3.25;;;;;;;;;;5029442;28;20033;-67
2022/07/24 06:29:21;;;;;;;9.43;3.22;;;;;;;;;;5057569;28;20032;-68
2022/07/24 06:31:47;;;;;;;9.90;3.13;;;;;;;;;;5034958;28;20642;-68
2022/07/24 06:34:13;;;;;;;8.10;3.33;;;;;;;;;;5049063;28;20043;-67
2022/07/24 06:36:39;;;;;;;9.82;3.45;;;;;;;;;;5050646;28;20048;-67
2022/07/24 06:39:05;;;;;;;9.00;3.75;;;;;;;;;;5046374;28;20485;-67
2022/07/24 06:41:32;;;;;;;13.20;3.97;;;;;;;;;;5018064;28;20093;-68
2022/07/24 06:43:59;;;;;;;15.65;3.90;;;;;;;;;;5048736;28;20347;-68
2022/07/24 06:46:25;;;;;;;12.68;3.78;;;;;;;;;;5058115;28;20492;-67
2022/07/24 06:48:51;;;;;;;13.65;3.45;;;;;;;;;;5050761;28;20055;-66
2022/07/24 06:51:18;;;;;;;9.52;3.28;;;;;;;;;;5056985;28;20056;-68
2022/07/24 06:53:46;;;;;;;8.90;3.20;;;;;;;;;;5029884;28;20542;-68
2022/07/24 06:56:12;;;;;;;11.77;3.30;;;;;;;;;;5047314;28;20028;-67
2022/07/24 06:58:39;;;;;;;12.80;3.33;;;;;;;;;;5029149;28;20138;-67
2022/07/24 07:01:05;;;;;;;10.15;3.17;;;;;;;;;;5047743;28;20032;-68
2022/07/24 07:03:31;;;;;;;10.95;3.35;;;;;;;;;;5054809;28;20575;-67
2022/07/24 07:05:57;;;;;;;7.50;2.88;;;;;;;;;;5051282;28;20474;-67
2022/07/24 07:08:23;;;;;;;10.30;2.85;;;;;;;;;;5053436;28;20032;-67
2022/07/24 07:10:49;;;;;;;10.27;3.35;;;;;;;;;;5048815;28;20554;-66
2022/07/24 07:13:16;;;;;;;8.25;2.90;;;;;;;;;;5050377;28;20032;-67
2022/07/24 07:15:42;;;;;;;9.00;3.67;;;;;;;;;;5045435;28;20459;-67
2022/07/24 07:18:08;;;;;;;8.48;3.63;;;;;;;;;;4997177;28;20036;-67
2022/07/24 07:20:34;;;;;;;13.52;3.30;;;;;;;;;;5019411;28;20834;-67
2022/07/24 07:23:00;;;;;;;8.90;2.97;;;;;;;;;;5012112;28;20032;-67
2022/07/24 07:25:26;;;;;;;8.70;2.63;;;;;;;;;;5015447;28;20118;-66
2022/07/24 07:27:53;;;;;;;11.00;3.03;;;;;;;;;;5016784;28;20033;-66
2022/07/24 07:30:19;;;;;;;15.20;2.80;;;;;;;;;;5019558;28;20708;-66
2022/07/24 07:32:45;;;;;;;8.77;3.00;;;;;;;;;;5016492;28;20490;-66
2022/07/24 07:35:11;;;;;;;9.27;3.05;;;;;;;;;;5011164;28;20028;-68
2022/07/24 07:37:37;;;;;;;10.63;3.08;;;;;;;;;;5017095;28;20032;-68
2022/07/24 07:40:04;;;;;;;10.30;3.25;;;;;;;;;;5019771;28;20599;-68
2022/07/24 07:42:30;;;;;;;9.07;3.20;;;;;;;;;;5014156;28;20321;-65
2022/07/24 07:44:56;;;;;;;10.98;3.22;;;;;;;;;;5015847;28;20621;-67
2022/07/24 07:47:22;;;;;;;9.60;3.13;;;;;;;;;;5017310;28;20492;-66
2022/07/24 07:49:49;;;;;;;7.03;2.70;;;;;;;;;;5017941;28;20828;-66
2022/07/24 07:52:15;;;;;;;9.30;2.58;;;;;;;;;;5017074;28;20372;-67
2022/07/24 07:54:41;;;;;;;7.35;2.58;;;;;;;;;;5041499;28;20601;-66
2022/07/24 07:57:07;;;;;;;8.73;2.85;;;;;;;;;;5048171;28;20496;-66
2022/07/24 07:59:33;;;;;;;6.55;2.70;;;;;;;;;;5033022;28;20116;-66
2022/07/24 08:01:59;;;;;;;10.27;2.72;;;;;;;;;;5050367;28;20024;-66
2022/07/24 08:04:26;;;;;;;8.85;2.63;;;;;;;;;;5052843;28;20029;-66
2022/07/24 08:06:52;;;;;;;8.10;2.63;;;;;;;;;;5052694;28;20039;-65
2022/07/24 08:09:18;;;;;;;8.32;2.65;;;;;;;;;;5054403;28;20115;-67
2022/07/24 08:11:44;;;;;;;7.63;2.63;;;;;;;;;;5054060;28;20447;-66
2022/07/24 08:14:10;;;;;;;6.60;2.55;;;;;;;;;;5056494;28;20028;-66
2022/07/24 08:16:36;;;;;;;10.63;2.47;;;;;;;;;;5057256;28;20039;-66
2022/07/24 08:19:03;;;;;;;8.10;2.30;;;;;;;;;;5051438;28;20033;-67
2022/07/24 08:21:29;;;;;;;7.50;2.40;;;;;;;;;;5054499;28;20561;-65
2022/07/24 08:23:55;;;;;;;11.45;2.20;;;;;;;;;;5052775;28;20028;-66
2022/07/24 08:26:21;;;;;;;7.75;2.15;;;;;;;;;;5037151;28;20031;-66
2022/07/24 08:28:47;;;;;;;6.22;2.40;;;;;;;;;;5054626;28;20035;-66
2022/07/24 08:31:13;;;;;;;6.00;2.40;;;;;;;;;;5029710;28;20817;-66
2022/07/24 08:33:40;;;;;;;5.90;1.90;;;;;;;;;;5051215;28;20078;-66
2022/07/24 08:36:06;;;;;;;6.97;2.38;;;;;;;;;;5028883;28;20036;-65
2022/07/24 08:38:32;;;;;;;7.10;2.30;;;;;;;;;;5032206;28;20048;-64
2022/07/24 08:40:58;;;;;;;7.65;2.30;;;;;;;;;;5048867;28;20024;-67
2022/07/24 08:43:24;;;;;;;6.53;2.33;;;;;;;;;;5055420;28;20027;-65
2022/07/24 08:45:53;;;;;;;7.18;2.40;;;;;;;;;;5046711;28;20374;-65
2022/07/24 08:48:21;;;;;;;6.15;2.00;;;;;;;;;;5050165;28;20025;-66
2022/07/24 08:50:47;;;;;;;6.53;1.90;;;;;;;;;;5049862;28;21225;-65
2022/07/24 08:53:14;;;;;;;5.95;2.30;;;;;;;;;;5030625;28;20029;-68
2022/07/24 08:55:40;;;;;;;7.15;2.13;;;;;;;;;;5047572;28;20024;-66
2022/07/24 08:58:06;;;;;;;6.13;1.98;;;;;;;;;;5044142;28;20028;-65
2022/07/24 09:00:33;;;;;;;5.88;1.88;;;;;;;;;;5036952;28;21467;-65
2022/07/24 09:02:59;;;;;;;6.60;2.30;;;;;;;;;;5022799;28;20029;-66
2022/07/24 09:05:25;;;;;;;6.80;2.08;;;;;;;;;;5045590;28;20036;-67
2022/07/24 09:08:05;;;;;;;6.88;2.03;;;;;;;;;;5029348;28;20016;-67
2022/07/24 09:10:33;;;;;;;6.55;2.05;;;;;;;;;;5052109;28;20039;-65
2022/07/24 09:13:11;;;;;;;6.13;1.95;;;;;;;;;;5045395;28;20067;-66
2022/07/24 09:15:44;;;;;;;13.15;2.47;;;;;;;;;;5047286;28;20043;-66
2022/07/24 09:18:25;;;;;;;6.68;2.08;;;;;;;;;;5047026;28;20028;-67
2022/07/24 09:20:51;;;;;;;4.70;2.00;;;;;;;;;;5025205;28;20032;-67
2022/07/24 09:23:19;;;;;;;7.82;2.30;;;;;;;;;;5048847;28;20091;-67
2022/07/24 09:25:50;;;;;;;7.68;2.03;;;;;;;;;;5047705;28;20037;-66
2022/07/24 09:28:17;;;;;;;6.78;1.92;;;;;;;;;;5047045;28;20035;-67
2022/07/24 09:30:44;;;;;;;7.72;2.60;;;;;;;;;;5046374;28;20039;-66
2022/07/24 09:33:13;;;;;;;6.43;2.20;;;;;;;;;;5027187;28;20274;-66
2022/07/24 09:35:40;;;;;;;8.52;2.22;;;;;;;;;;5047965;28;20036;-67
2022/07/24 09:38:07;;;;;;;6.82;2.33;;;;;;;;;;5027342;28;20497;-65
2022/07/24 09:40:37;;;;;;;5.80;2.03;;;;;;;;;;5031842;28;20479;-65
2022/07/24 09:43:19;;;;;;;4.85;2.00;;;;;;;;;;5024312;28;20031;-66
2022/07/24 09:45:54;;;;;;;5.30;2.17;;;;;;;;;;5043201;28;20454;-65
2022/07/24 09:48:22;;;;;;;6.43;2.30;;;;;;;;;;5043978;28;20729;-68
2022/07/24 09:50:52;;;;;;;10.05;2.53;;;;;;;;;;5042826;28;20193;-67
2022/07/24 09:53:19;;;;;;;6.05;2.30;;;;;;;;;;5025878;28;20032;-65
2022/07/24 09:55:45;;;;;;;6.82;2.40;;;;;;;;;;5041942;28;20047;-67
2022/07/24 09:58:17;;;;;;;7.55;2.60;;;;;;;;;;5020841;28;20021;-67
2022/07/24 10:00:44;;;;;;;7.25;2.53;;;;;;;;;;5041309;28;20020;-66
2022/07/24 10:03:14;;;;;;;6.43;2.60;;;;;;;;;;5040511;28;20090;-66
2022/07/24 10:05:43;;;;;;;9.02;3.03;;;;;;;;;;5044870;28;20031;-66
2022/07/24 10:08:14;;;;;;;8.07;2.70;;;;;;;;;;5035481;28;20225;-68
2022/07/24 10:10:42;;;;;;;5.40;2.38;;;;;;;;;;5040759;28;20432;-66
2022/07/24 10:13:08;;;;;;;6.00;2.60;;;;;;;;;;5039814;28;20035;-65
2022/07/24 10:15:36;;;;;;;7.30;2.70;;;;;;;;;;5040688;28;20066;-66
2022/07/24 10:18:15;;;;;;;6.38;2.70;;;;;;;;;;5038675;28;20024;-66
2022/07/24 10:20:42;;;;;;;11.27;2.70;;;;;;;;;;5045872;28;20040;-65
2022/07/24 10:23:08;;;;;;;7.55;2.53;;;;;;;;;;5037452;28;20380;-68
2022/07/24 10:25:55;;;;;;;6.47;2.40;;;;;;;;;;5042703;28;20381;-65
2022/07/24 10:28:30;;;;;;;6.35;2.60;;;;;;;;;;5044500;28;20110;-67
2022/07/24 10:30:56;;;;;;;6.75;2.40;;;;;;;;;;5014605;28;20830;-66
2022/07/24 10:33:23;;;;;;;5.22;2.30;;;;;;;;;;5009474;28;20085;-67
2022/07/24 10:35:50;;;;;;;7.90;2.85;;;;;;;;;;5049165;28;20147;-69
2022/07/24 10:38:28;;;;;;;6.28;2.63;;;;;;;;;;5050731;28;20463;-66
2022/07/24 10:40:56;;;;;;;7.60;2.50;;;;;;;;;;5047945;28;20055;-66
2022/07/24 10:43:22;;;;;;;9.40;2.58;;;;;;;;;;5058953;28;20029;-67
2022/07/24 10:45:54;;;;;;;9.98;2.40;;;;;;;;;;5034296;28;20043;-66
2022/07/24 10:48:21;;;;;;;7.75;2.30;;;;;;;;;;5057150;28;20583;-66
2022/07/24 10:50:59;;;;;;;8.65;2.42;;;;;;;;;;5025674;28;20060;-66
2022/07/24 10:53:29;;;;;;;6.47;2.30;;;;;;;;;;5009882;28;20216;-66
2022/07/24 10:56:14;;;;;;;9.93;2.63;;;;;;;;;;5012991;28;20832;-66
2022/07/24 10:58:59;;;;;;;8.82;2.47;;;;;;;;;;5014577;28;20061;-65
2022/07/24 11:01:28;;;;;;;8.00;3.30;;;;;;;;;;5018423;28;20033;-67
2022/07/24 11:03:54;;;;;;;8.10;2.78;;;;;;;;;;5016012;28;20496;-66
2022/07/24 11:06:39;;;;;;;5.95;2.53;;;;;;;;;;4995480;28;20174;-67
2022/07/24 11:09:05;;;;;;;6.35;2.20;;;;;;;;;;4973582;28;20057;-66
2022/07/24 11:11:31;;;;;;;9.15;4.82;;;;;;;;;;4973800;28;20133;-68
2022/07/24 11:13:59;;;;;;;6.15;2.85;;;;;;;;;;4973547;28;20038;-67
2022/07/24 11:16:35;;;;;;;7.20;2.50;;;;;;;;;;4980480;28;20071;-66
2022/07/24 11:19:01;;;;;;;6.88;2.40;;;;;;;;;;4972456;28;20037;-67
2022/07/24 11:21:47;;;;;;;7.28;2.60;;;;;;;;;;4978836;28;20051;-66
2022/07/24 11:24:17;;;;;;;6.63;2.40;;;;;;;;;;4974891;28;20031;-68
2022/07/24 11:26:47;;;;;;;8.15;2.70;;;;;;;;;;4977583;28;20029;-65
2022/07/24 11:29:16;;;;;;;7.30;2.38;;;;;;;;;;4975370;28;20446;-66
2022/07/24 11:31:46;;;;;;;8.13;2.50;;;;;;;;;;4978273;28;20021;-65
2022/07/24 11:34:12;;;;;;;7.63;2.22;;;;;;;;;;4975374;28;20372;-66
2022/07/24 11:36:42;;;;;;;7.57;2.50;;;;;;;;;;4978653;28;20111;-69
2022/07/24 11:39:09;;;;;;;7.40;2.30;;;;;;;;;;4970866;28;21138;-67
2022/07/24 11:41:49;;;;;;;6.60;2.20;;;;;;;;;;4973907;28;20063;-67
2022/07/24 11:44:21;;;;;;;6.95;2.25;;;;;;;;;;4996122;28;20033;-65
2022/07/24 11:46:48;;;;;;;9.38;2.40;;;;;;;;;;5015781;28;20029;-67
2022/07/24 11:49:14;;;;;;;7.07;2.38;;;;;;;;;;5015175;28;20044;-66
2022/07/24 11:51:42;;;;;;;6.55;2.22;;;;;;;;;;5049057;28;20463;-65
2022/07/24 11:54:08;;;;;;;8.55;2.50;;;;;;;;;;5056252;28;20028;-67
2022/07/24 11:56:34;;;;;;;7.20;2.38;;;;;;;;;;5059330;28;20031;-66
2022/07/24 11:59:00;;;;;;;7.22;2.30;;;;;;;;;;5034925;28;20324;-66
2022/07/24 12:01:26;;;;;;;7.28;2.25;;;;;;;;;;5055809;28;20017;-67
2022/07/24 12:03:53;;;;;;;7.60;2.60;;;;;;;;;;5050780;28;20044;-66
2022/07/24 12:06:20;;;;;;;10.27;2.40;;;;;;;;;;5060895;28;20539;-65
2022/07/24 12:08:46;;;;;;;6.93;2.30;;;;;;;;;;5057752;28;20137;-67
2022/07/24 12:11:21;;;;;;;6.15;2.50;;;;;;;;;;5054816;28;20355;-67
2022/07/24 12:13:47;;;;;;;9.30;2.33;;;;;;;;;;5039176;28;20040;-66
2022/07/24 12:16:34;;;;;;;6.95;2.20;;;;;;;;;;5058539;28;20111;-65
2022/07/24 12:19:16;;;;;;;7.22;2.35;;;;;;;;;;5053620;28;20113;-67
2022/07/24 12:21:43;;;;;;;8.27;2.22;;;;;;;;;;5058062;28;20721;-65
2022/07/24 12:24:09;;;;;;;7.05;2.25;;;;;;;;;;5060322;28;20039;-66
2022/07/24 12:26:48;;;;;;;7.35;2.10;;;;;;;;;;5059773;28;20028;-67
2022/07/24 12:29:15;;;;;;;7.53;2.40;;;;;;;;;;5043938;28;20126;-65
2022/07/24 12:31:41;;;;;;;7.38;2.50;;;;;;;;;;5040767;28;20651;-67
2022/07/24 12:34:07;;;;;;;4.68;1.98;;;;;;;;;;5036426;28;20469;-66
2022/07/24 12:36:33;;;;;;;8.00;2.30;;;;;;;;;;5059513;28;20484;-68
2022/07/24 12:39:00;;;;;;;6.53;2.20;;;;;;;;;;5034298;28;20032;-66
2022/07/24 12:41:27;;;;;;;6.57;2.75;;;;;;;;;;5056859;28;20583;-66
2022/07/24 12:44:04;;;;;;;6.53;2.28;;;;;;;;;;5035635;28;20492;-65
2022/07/24 12:46:30;;;;;;;5.57;2.40;;;;;;;;;;5031281;28;20319;-66
2022/07/24 12:49:06;;;;;;;6.25;2.20;;;;;;;;;;5037963;28;20276;-66
2022/07/24 12:51:51;;;;;;;7.22;2.33;;;;;;;;;;5054010;28;20130;-66
2022/07/24 12:54:21;;;;;;;6.85;2.40;;;;;;;;;;5037706;28;20551;-65
2022/07/24 12:56:48;;;;;;;7.03;2.22;;;;;;;;;;5055846;28;20025;-66
2022/07/24 12:59:24;;;;;;;7.50;2.10;;;;;;;;;;5052187;28;20382;-66
2022/07/24 13:01:54;;;;;;;9.43;2.30;;;;;;;;;;5033502;28;20031;-66
2022/07/24 13:04:22;;;;;;;6.85;2.20;;;;;;;;;;5056803;28;20123;-67
2022/07/24 13:06:53;;;;;;;6.30;2.20;;;;;;;;;;5059424;28;20472;-65
2022/07/24 13:09:19;;;;;;;8.25;2.33;;;;;;;;;;5050833;28;20028;-65
2022/07/24 13:11:46;;;;;;;7.00;2.20;;;;;;;;;;5056212;28;20146;-66
2022/07/24 13:14:13;;;;;;;7.63;2.70;;;;;;;;;;5033086;28;20025;-65
2022/07/24 13:16:40;;;;;;;7.95;2.10;;;;;;;;;;5054484;28;20555;-65
2022/07/24 13:19:07;;;;;;;6.15;2.00;;;;;;;;;;5052864;28;20377;-65
2022/07/24 13:21:33;;;;;;;6.13;2.33;;;;;;;;;;5056283;28;20029;-66
2022/07/24 13:23:59;;;;;;;7.15;2.22;;;;;;;;;;5051501;28;20037;-67
2022/07/24 13:26:26;;;;;;;8.23;2.20;;;;;;;;;;5055563;28;20502;-66
2022/07/24 13:28:52;;;;;;;6.45;2.40;;;;;;;;;;5048908;28;20123;-65
2022/07/24 13:31:21;;;;;;;5.75;2.30;;;;;;;;;;5057958;28;20036;-65
2022/07/24 13:33:48;;;;;;;6.35;2.20;;;;;;;;;;5056169;28;20127;-66
2022/07/24 13:36:15;;;;;;;6.25;2.20;;;;;;;;;;5056419;28;20503;-65
2022/07/24 13:38:41;;;;;;;6.50;2.47;;;;;;;;;;5054191;28;20621;-65
2022/07/24 13:41:07;;;;;;;7.70;2.22;;;;;;;;;;5050916;28;20074;-65
2022/07/24 13:43:33;;;;;;;5.95;2.05;;;;;;;;;;5056429;28;20579;-66
2022/07/24 13:46:00;;;;;;;8.13;2.30;;;;;;;;;;5051947;28;20028;-66
2022/07/24 13:48:26;;;;;;;8.85;2.10;;;;;;;;;;5058707;28;20776;-65
2022/07/24 13:50:52;;;;;;;6.40;2.20;;;;;;;;;;5050126;28;20060;-66
2022/07/24 13:53:18;;;;;;;6.43;2.13;;;;;;;;;;5057355;28;20028;-65
2022/07/24 13:55:44;;;;;;;6.93;2.30;;;;;;;;;;5052869;28;20036;-65
2022/07/24 13:58:11;;;;;;;6.90;2.20;;;;;;;;;;5029260;28;20107;-65
2022/07/24 14:00:37;;;;;;;7.30;2.40;;;;;;;;;;5054175;28;20114;-65
2022/07/24 14:03:03;;;;;;;7.80;2.22;;;;;;;;;;5053435;28;20052;-66
2022/07/24 14:05:30;;;;;;;5.72;2.15;;;;;;;;;;5059807;28;20024;-66
2022/07/24 14:07:56;;;;;;;6.45;2.20;;;;;;;;;;5041505;28;20036;-66
2022/07/24 14:10:23;;;;;;;7.63;2.25;;;;;;;;;;5056272;28;20790;-67
2022/07/24 14:12:49;;;;;;;6.47;2.20;;;;;;;;;;5041423;28;20033;-65
2022/07/24 14:15:16;;;;;;;6.18;2.25;;;;;;;;;;5057122;28;20463;-67
2022/07/24 14:17:43;;;;;;;5.57;2.10;;;;;;;;;;5056459;28;20728;-66
2022/07/24 14:20:10;;;;;;;7.90;2.67;;;;;;;;;;5054986;28;20067;-65
2022/07/24 14:22:36;;;;;;;8.45;2.20;;;;;;;;;;5061656;28;20727;-65
2022/07/24 14:25:03;;;;;;;5.82;2.10;;;;;;;;;;5053639;28;20024;-66
2022/07/24 14:27:29;;;;;;;8.98;2.38;;;;;;;;;;5040743;28;20063;-66
2022/07/24 14:29:55;;;;;;;5.90;2.10;;;;;;;;;;5051803;28;20135;-66
2022/07/24 14:32:22;;;;;;;8.43;2.05;;;;;;;;;;5054023;28;20012;-65
2022/07/24 14:34:48;;;;;;;8.00;2.38;;;;;;;;;;5028347;28;20055;-66
2022/07/24 14:37:15;;;;;;;6.28;2.10;;;;;;;;;;5054455;28;20024;-66
2022/07/24 14:39:41;;;;;;;6.35;2.15;;;;;;;;;;5049446;28;20033;-65
2022/07/24 14:42:07;;;;;;;6.35;2.15;;;;;;;;;;5028600;28;20297;-65